Wetterdaten: Woche 13.10.14 - 19.10.14 (KW42)
Datum Zeit Temp. A. Feuchte A. Luftdruck Regen Wind Richtung Sonnenschein ET UV Solar Taupunkt Windchill Windben Empfang
13.10.2014 00:00 13,3 C 84 % 1008,5 hPa 0,0 l/m 0,0 km/h (0 Bft) N 0,00 h 0,000 mm 0,0 UV-I 0 W/m 10,6 C 13,3 C 0,0 km/h (0 Bft) 0,00 %
13.10.2014 01:00 12,5 C 86 % 1008,6 hPa 0,0 l/m 0,0 km/h (0 Bft) N 0,00 h 0,000 mm 0,0 UV-I 0 W/m 10,1 C 12,5 C 0,0 km/h (0 Bft) 0,00 %
13.10.2014 02:00 11,6 C 86 % 1008,9 hPa 0,0 l/m 0,0 km/h (0 Bft) N 0,00 h 0,000 mm 0,0 UV-I 0 W/m 9,3 C 11,6 C 0,0 km/h (0 Bft) 0,00 %
13.10.2014 03:00 10,9 C 86 % 1008,7 hPa 0,0 l/m 0,0 km/h (0 Bft) N 0,00 h 0,000 mm 0,0 UV-I 0 W/m 8,7 C 10,9 C 0,0 km/h (0 Bft) 0,00 %
13.10.2014 04:00 10,9 C 87 % 1008,4 hPa 0,0 l/m 0,0 km/h (0 Bft) N 0,00 h 0,000 mm 0,0 UV-I 0 W/m 8,8 C 10,9 C 0,0 km/h (0 Bft) 0,00 %
13.10.2014 05:00 11,3 C 87 % 1008,4 hPa 0,3 l/m 0,0 km/h (0 Bft) N 0,00 h 0,000 mm 0,0 UV-I 0 W/m 9,2 C 11,3 C 0,0 km/h (0 Bft) 0,00 %
13.10.2014 06:00 11,6 C 87 % 1008,4 hPa 0,0 l/m 0,0 km/h (0 Bft) N 0,00 h 0,000 mm 0,0 UV-I 0 W/m 9,4 C 11,6 C 0,0 km/h (0 Bft) 0,00 %
13.10.2014 07:00 12,1 C 87 % 1008,4 hPa 0,0 l/m 0,1 km/h (0 Bft) N 0,00 h 0,000 mm 0,0 UV-I 4 W/m 10,1 C 12,1 C 1,0 km/h (0 Bft) 0,00 %
13.10.2014 08:00 12,6 C 87 % 1008,6 hPa 0,0 l/m 0,6 km/h (0 Bft) O 0,00 h 0,000 mm 1,0 UV-I 44 W/m 10,4 C 12,6 C 2,0 km/h (1 Bft) 0,00 %
13.10.2014 09:00 13,1 C 87 % 1008,8 hPa 0,0 l/m 2,4 km/h (1 Bft) O-SO 0,00 h 0,000 mm 1,0 UV-I 89 W/m 10,9 C 13,0 C 5,0 km/h (1 Bft) 0,00 %
13.10.2014 10:00 14,2 C 82 % 1008,3 hPa 0,0 l/m 1,8 km/h (1 Bft) O 0,00 h 0,000 mm 1,7 UV-I 139 W/m 11,1 C 14,2 C 4,0 km/h (1 Bft) 0,00 %
13.10.2014 11:00 15,0 C 77 % 1008,3 hPa 0,0 l/m 4,0 km/h (1 Bft) S-SO 0,00 h 0,000 mm 1,7 UV-I 159 W/m 11,0 C 14,4 C 5,9 km/h (2 Bft) 0,00 %
13.10.2014 12:00 16,0 C 73 % 1007,7 hPa 0,0 l/m 1,4 km/h (1 Bft) O-SO 0,25 h 0,000 mm 2,7 UV-I 283 W/m 11,2 C 16,0 C 4,0 km/h (1 Bft) 0,00 %
13.10.2014 13:00 17,0 C 71 % 1006,3 hPa 0,0 l/m 0,2 km/h (0 Bft) N 0,00 h 0,000 mm 2,3 UV-I 239 W/m 11,6 C 17,0 C 2,0 km/h (1 Bft) 0,00 %
13.10.2014 14:00 17,9 C 69 % 1006,0 hPa 0,0 l/m 0,3 km/h (0 Bft) O 0,00 h 0,000 mm 2,0 UV-I 215 W/m 12,1 C 17,9 C 1,0 km/h (0 Bft) 0,00 %
13.10.2014 15:00 18,1 C 69 % 1005,7 hPa 0,0 l/m 0,2 km/h (0 Bft) N 0,00 h 0,000 mm 1,7 UV-I 174 W/m 12,3 C 18,1 C 2,0 km/h (1 Bft) 0,00 %
13.10.2014 16:00 18,0 C 71 % 1006,1 hPa 0,0 l/m 0,0 km/h (0 Bft) N 0,00 h 0,000 mm 1,0 UV-I 101 W/m 12,7 C 18,0 C 0,0 km/h (0 Bft) 0,00 %
13.10.2014 17:00 16,9 C 74 % 1006,1 hPa 0,0 l/m 0,2 km/h (0 Bft) N 0,00 h 0,000 mm 0,0 UV-I 26 W/m 12,3 C 16,9 C 2,0 km/h (1 Bft) 0,00 %
13.10.2014 18:00 15,1 C 80 % 1006,6 hPa 0,0 l/m 0,0 km/h (0 Bft) N 0,00 h 0,000 mm 0,0 UV-I 0 W/m 11,7 C 15,1 C 0,0 km/h (0 Bft) 0,00 %
13.10.2014 19:00 14,5 C 83 % 1007,2 hPa 0,0 l/m 0,0 km/h (0 Bft) N 0,00 h 0,000 mm 0,0 UV-I 0 W/m 11,5 C 14,5 C 0,0 km/h (0 Bft) 0,00 %
13.10.2014 20:00 14,3 C 84 % 1006,6 hPa 0,0 l/m 0,0 km/h (0 Bft) N 0,00 h 0,000 mm 0,0 UV-I 0 W/m 11,6 C 14,3 C 0,0 km/h (0 Bft) 0,00 %
13.10.2014 21:00 14,4 C 84 % 1006,7 hPa 0,0 l/m 0,0 km/h (0 Bft) N 0,00 h 0,000 mm 0,0 UV-I 0 W/m 11,7 C 14,4 C 0,0 km/h (0 Bft) 0,00 %
13.10.2014 22:00 14,3 C 85 % 1006,8 hPa 0,6 l/m 0,0 km/h (0 Bft) N 0,00 h 0,000 mm 0,0 UV-I 0 W/m 11,7 C 14,3 C 0,0 km/h (0 Bft) 0,00 %
13.10.2014 23:00 14,1 C 86 % 1006,7 hPa 2,1 l/m 0,6 km/h (0 Bft) SO 0,00 h 0,000 mm 0,0 UV-I 0 W/m 11,7 C 14,1 C 2,0 km/h (1 Bft) 0,00 %
14.10.2014 00:00 14,0 C 86 % 1003,6 hPa 1,5 l/m 5,4 km/h (1 Bft) O-NO 0,00 h 0,000 mm 0,0 UV-I 0 W/m 11,7 C 13,0 C 9,9 km/h (2 Bft) 0,00 %
14.10.2014 01:00 14,1 C 86 % 1004,8 hPa 0,0 l/m 2,6 km/h (1 Bft) W-SW 0,00 h 0,000 mm 0,0 UV-I 0 W/m 11,8 C 13,6 C 3,0 km/h (1 Bft) 0,00 %
14.10.2014 02:00 14,1 C 86 % 1006,0 hPa 0,0 l/m 0,8 km/h (0 Bft) W-SW 0,00 h 0,000 mm 0,0 UV-I 0 W/m 11,8 C 14,1 C 2,0 km/h (1 Bft) 0,00 %
14.10.2014 03:00 13,9 C 86 % 1006,4 hPa 0,0 l/m 0,1 km/h (0 Bft) O 0,00 h 0,000 mm 0,0 UV-I 0 W/m 11,6 C 13,9 C 1,0 km/h (0 Bft) 0,00 %
14.10.2014 04:00 13,9 C 85 % 1006,9 hPa 0,0 l/m 2,3 km/h (1 Bft) SO 0,00 h 0,000 mm 0,0 UV-I 0 W/m 11,3 C 13,9 C 5,0 km/h (1 Bft) 0,00 %
14.10.2014 05:00 14,0 C 84 % 1007,7 hPa 0,0 l/m 1,6 km/h (1 Bft) S-SW 0,00 h 0,000 mm 0,0 UV-I 0 W/m 11,3 C 14,0 C 4,0 km/h (1 Bft) 0,00 %
14.10.2014 06:00 13,6 C 83 % 1008,6 hPa 0,0 l/m 1,6 km/h (1 Bft) W-SW 0,00 h 0,000 mm 0,0 UV-I 0 W/m 10,8 C 13,6 C 6,9 km/h (2 Bft) 0,00 %
14.10.2014 07:00 12,8 C 83 % 1009,5 hPa 0,0 l/m 1,4 km/h (1 Bft) W-SW 0,00 h 0,000 mm 0,0 UV-I 5 W/m 10,0 C 12,8 C 4,0 km/h (1 Bft) 0,00 %
14.10.2014 08:00 13,0 C 83 % 1010,2 hPa 0,0 l/m 0,1 km/h (0 Bft) N 0,00 h 0,000 mm 1,0 UV-I 37 W/m 10,1 C 13,0 C 1,0 km/h (0 Bft) 0,00 %
14.10.2014 09:00 14,1 C 78 % 1010,4 hPa 0,0 l/m 0,3 km/h (0 Bft) N 0,00 h 0,000 mm 1,0 UV-I 123 W/m 10,3 C 14,1 C 2,0 km/h (1 Bft) 0,00 %
14.10.2014 10:00 15,5 C 70 % 1010,3 hPa 0,0 l/m 1,7 km/h (1 Bft) S 0,00 h 0,000 mm 2,0 UV-I 128 W/m 10,1 C 15,5 C 4,0 km/h (1 Bft) 0,00 %
14.10.2014 11:00 17,5 C 62 % 1009,5 hPa 0,0 l/m 0,4 km/h (0 Bft) W-NW 0,00 h 0,000 mm 2,7 UV-I 186 W/m 10,1 C 17,5 C 2,0 km/h (1 Bft) 0,00 %
14.10.2014 12:00 17,3 C 63 % 1009,3 hPa 0,0 l/m 0,7 km/h (0 Bft) N 0,00 h 0,000 mm 2,0 UV-I 125 W/m 10,0 C 17,3 C 1,0 km/h (0 Bft) 0,00 %
14.10.2014 13:00 18,1 C 61 % 1008,3 hPa 0,0 l/m 0,8 km/h (0 Bft) W-SW 0,00 h 0,000 mm 2,0 UV-I 172 W/m 10,3 C 18,1 C 2,0 km/h (1 Bft) 0,00 %
14.10.2014 14:00 17,6 C 59 % 1007,9 hPa 0,0 l/m 0,6 km/h (0 Bft) N-NW 0,00 h 0,000 mm 2,0 UV-I 87 W/m 9,4 C 17,6 C 1,0 km/h (0 Bft) 0,00 %
14.10.2014 15:00 18,0 C 56 % 1007,0 hPa 0,0 l/m 0,7 km/h (0 Bft) O 1,00 h 0,000 mm 1,3 UV-I 303 W/m 9,1 C 18,0 C 4,0 km/h (1 Bft) 0,00 %
14.10.2014 16:00 17,8 C 57 % 1007,0 hPa 0,0 l/m 1,1 km/h (1 Bft) N 0,75 h 0,000 mm 1,0 UV-I 229 W/m 9,2 C 17,8 C 3,0 km/h (1 Bft) 0,00 %
14.10.2014 17:00 17,0 C 60 % 1007,5 hPa 0,0 l/m 0,2 km/h (0 Bft) N 0,75 h 0,000 mm 1,0 UV-I 63 W/m 9,0 C 17,0 C 1,0 km/h (0 Bft) 0,00 %
14.10.2014 18:00 14,9 C 69 % 1007,8 hPa 0,0 l/m 0,0 km/h (0 Bft) N 0,00 h 0,000 mm 0,0 UV-I 0 W/m 9,3 C 14,9 C 0,0 km/h (0 Bft) 0,00 %
14.10.2014 19:00 14,2 C 70 % 1008,0 hPa 0,0 l/m 0,1 km/h (0 Bft) N 0,00 h 0,000 mm 0,0 UV-I 0 W/m 8,7 C 14,2 C 1,0 km/h (0 Bft) 0,00 %
14.10.2014 20:00 14,0 C 70 % 1008,0 hPa 0,0 l/m 0,9 km/h (0 Bft) O-SO 0,00 h 0,000 mm 0,0 UV-I 0 W/m 8,6 C 14,0 C 2,0 km/h (1 Bft) 0,00 %
14.10.2014 21:00 12,5 C 77 % 1008,2 hPa 0,0 l/m 0,0 km/h (0 Bft) N 0,00 h 0,000 mm 0,0 UV-I 0 W/m 8,6 C 12,5 C 0,0 km/h (0 Bft) 0,00 %
14.10.2014 22:00 11,1 C 82 % 1008,3 hPa 0,0 l/m 0,0 km/h (0 Bft) N 0,00 h 0,000 mm 0,0 UV-I 0 W/m 8,1 C 11,1 C 0,0 km/h (0 Bft) 0,00 %
14.10.2014 23:00 10,3 C 84 % 1008,1 hPa 0,0 l/m 0,0 km/h (0 Bft) N 0,00 h 0,000 mm 0,0 UV-I 0 W/m 7,8 C 10,3 C 0,0 km/h (0 Bft) 0,00 %
15.10.2014 00:00 9,9 C 85 % 1007,8 hPa 0,0 l/m 0,0 km/h (0 Bft) N 0,00 h 0,000 mm 0,0 UV-I 0 W/m 7,6 C 9,9 C 0,0 km/h (0 Bft) 0,00 %
15.10.2014 01:00 9,6 C 87 % 1007,7 hPa 0,0 l/m 0,0 km/h (0 Bft) N 0,00 h 0,000 mm 0,0 UV-I 0 W/m 7,5 C 9,6 C 0,0 km/h (0 Bft) 0,00 %
15.10.2014 02:00 9,4 C 86 % 1007,3 hPa 0,0 l/m 0,0 km/h (0 Bft) N 0,00 h 0,000 mm 0,0 UV-I 0 W/m 7,2 C 9,4 C 0,0 km/h (0 Bft) 0,00 %
15.10.2014 03:00 9,4 C 87 % 1007,0 hPa 0,0 l/m 0,0 km/h (0 Bft) N 0,00 h 0,000 mm 0,0 UV-I 0 W/m 7,3 C 9,4 C 0,0 km/h (0 Bft) 0,00 %
15.10.2014 04:00 9,0 C 87 % 1007,0 hPa 0,0 l/m 0,0 km/h (0 Bft) N 0,00 h 0,000 mm 0,0 UV-I 0 W/m 7,0 C 9,0 C 0,0 km/h (0 Bft) 0,00 %
15.10.2014 05:00 8,8 C 87 % 1006,9 hPa 0,0 l/m 0,0 km/h (0 Bft) N 0,00 h 0,000 mm 0,0 UV-I 0 W/m 6,8 C 8,8 C 0,0 km/h (0 Bft) 0,00 %
15.10.2014 06:00 9,3 C 87 % 1006,6 hPa 0,0 l/m 0,0 km/h (0 Bft) N 0,00 h 0,000 mm 0,0 UV-I 0 W/m 7,1 C 9,3 C 0,0 km/h (0 Bft) 0,00 %
15.10.2014 07:00 9,6 C 87 % 1007,2 hPa 0,0 l/m 0,0 km/h (0 Bft) N 0,00 h 0,000 mm 0,0 UV-I 0 W/m 7,5 C 9,6 C 0,0 km/h (0 Bft) 0,00 %
15.10.2014 08:00 10,3 C 87 % 1007,6 hPa 0,0 l/m 0,0 km/h (0 Bft) N 0,00 h 0,000 mm 1,0 UV-I 53 W/m 8,2 C 10,3 C 0,0 km/h (0 Bft) 0,00 %
15.10.2014 09:00 11,5 C 85 % 1007,8 hPa 0,0 l/m 0,0 km/h (0 Bft) N 0,00 h 0,000 mm 1,0 UV-I 107 W/m 9,0 C 11,5 C 0,0 km/h (0 Bft) 0,00 %
15.10.2014 10:00 13,1 C 79 % 1007,2 hPa 0,0 l/m 0,6 km/h (0 Bft) S 0,00 h 0,000 mm 2,0 UV-I 181 W/m 9,5 C 13,1 C 2,0 km/h (1 Bft) 0,00 %
15.10.2014 11:00 15,7 C 70 % 1006,5 hPa 0,0 l/m 0,4 km/h (0 Bft) N 0,00 h 0,000 mm 2,0 UV-I 210 W/m 10,2 C 15,7 C 3,0 km/h (1 Bft) 0,00 %
15.10.2014 12:00 16,3 C 67 % 1006,7 hPa 0,0 l/m 1,1 km/h (0 Bft) W-NW 0,00 h 0,000 mm 2,0 UV-I 198 W/m 10,2 C 16,3 C 2,0 km/h (1 Bft) 0,00 %
15.10.2014 13:00 17,1 C 63 % 1005,6 hPa 0,0 l/m 0,2 km/h (0 Bft) N 0,00 h 0,000 mm 2,3 UV-I 234 W/m 10,0 C 17,1 C 1,0 km/h (0 Bft) 0,00 %
15.10.2014 14:00 17,4 C 61 % 1005,4 hPa 0,0 l/m 0,0 km/h (0 Bft) N 0,00 h 0,000 mm 2,0 UV-I 170 W/m 9,9 C 17,4 C 0,0 km/h (0 Bft) 0,00 %
15.10.2014 15:00 16,9 C 63 % 1005,7 hPa 0,0 l/m 0,0 km/h (0 Bft) N 0,00 h 0,000 mm 1,3 UV-I 165 W/m 9,7 C 16,9 C 0,0 km/h (0 Bft) 0,00 %
15.10.2014 16:00 16,7 C 62 % 1005,3 hPa 0,0 l/m 0,0 km/h (0 Bft) N 0,50 h 0,000 mm 1,0 UV-I 155 W/m 9,3 C 16,7 C 0,0 km/h (0 Bft) 0,00 %
15.10.2014 17:00 16,1 C 65 % 1005,5 hPa 0,0 l/m 0,0 km/h (0 Bft) N 0,75 h 0,000 mm 1,0 UV-I 63 W/m 9,6 C 16,1 C 0,0 km/h (0 Bft) 0,00 %
15.10.2014 18:00 14,2 C 74 % 1006,0 hPa 0,0 l/m 0,0 km/h (0 Bft) N 0,00 h 0,000 mm 0,0 UV-I 0 W/m 9,5 C 14,2 C 0,0 km/h (0 Bft) 0,00 %
15.10.2014 19:00 12,9 C 79 % 1006,5 hPa 0,0 l/m 0,0 km/h (0 Bft) N 0,00 h 0,000 mm 0,0 UV-I 0 W/m 9,3 C 12,9 C 0,0 km/h (0 Bft) 0,00 %
15.10.2014 20:00 12,0 C 81 % 1006,8 hPa 0,0 l/m 0,0 km/h (0 Bft) N 0,00 h 0,000 mm 0,0 UV-I 0 W/m 8,9 C 12,0 C 0,0 km/h (0 Bft) 0,00 %
15.10.2014 21:00 11,6 C 83 % 1006,9 hPa 0,0 l/m 0,0 km/h (0 Bft) N 0,00 h 0,000 mm 0,0 UV-I 0 W/m 8,8 C 11,6 C 0,0 km/h (0 Bft) 0,00 %
15.10.2014 22:00 11,5 C 84 % 1007,3 hPa 0,0 l/m 0,0 km/h (0 Bft) N 0,00 h 0,000 mm 0,0 UV-I 0 W/m 8,9 C 11,5 C 0,0 km/h (0 Bft) 0,00 %
15.10.2014 23:00 11,4 C 84 % 1007,2 hPa 0,0 l/m 0,0 km/h (0 Bft) N 0,00 h 0,000 mm 0,0 UV-I 0 W/m 8,8 C 11,4 C 0,0 km/h (0 Bft) 0,00 %
16.10.2014 00:00 11,5 C 85 % 1006,9 hPa 0,3 l/m 0,0 km/h (0 Bft) N 0,00 h 0,000 mm 0,0 UV-I 0 W/m 9,1 C 11,5 C 0,0 km/h (0 Bft) 0,00 %
16.10.2014 01:00 11,4 C 86 % 1006,9 hPa 0,0 l/m 0,0 km/h (0 Bft) N 0,00 h 0,000 mm 0,0 UV-I 0 W/m 9,1 C 11,4 C 0,0 km/h (0 Bft) 0,00 %
16.10.2014 02:00 11,2 C 86 % 1007,3 hPa 0,0 l/m 0,0 km/h (0 Bft) N 0,00 h 0,000 mm 0,0 UV-I 0 W/m 9,0 C 11,2 C 0,0 km/h (0 Bft) 0,00 %
16.10.2014 03:00 11,2 C 86 % 1007,5 hPa 0,0 l/m 0,0 km/h (0 Bft) N 0,00 h 0,000 mm 0,0 UV-I 0 W/m 8,9 C 11,2 C 0,0 km/h (0 Bft) 0,00 %
16.10.2014 04:00 11,5 C 86 % 1007,3 hPa 0,0 l/m 0,0 km/h (0 Bft) N 0,00 h 0,000 mm 0,0 UV-I 0 W/m 9,2 C 11,5 C 0,0 km/h (0 Bft) 0,00 %
16.10.2014 05:00 11,4 C 86 % 1007,6 hPa 0,0 l/m 0,0 km/h (0 Bft) N 0,00 h 0,000 mm 0,0 UV-I 0 W/m 9,1 C 11,4 C 0,0 km/h (0 Bft) 0,00 %
16.10.2014 06:00 11,2 C 86 % 1007,7 hPa 0,0 l/m 0,0 km/h (0 Bft) N 0,00 h 0,000 mm 0,0 UV-I 0 W/m 9,0 C 11,2 C 0,0 km/h (0 Bft) 0,00 %
16.10.2014 07:00 11,3 C 87 % 1008,0 hPa 0,0 l/m 0,0 km/h (0 Bft) N 0,00 h 0,000 mm 0,0 UV-I 3 W/m 9,1 C 11,3 C 0,0 km/h (0 Bft) 0,00 %
16.10.2014 08:00 12,2 C 86 % 1008,0 hPa 0,3 l/m 0,0 km/h (0 Bft) N 0,25 h 0,000 mm 1,0 UV-I 74 W/m 9,9 C 12,2 C 0,0 km/h (0 Bft) 0,00 %
16.10.2014 09:00 13,7 C 81 % 1008,4 hPa 0,0 l/m 0,0 km/h (0 Bft) N 0,00 h 0,000 mm 1,0 UV-I 92 W/m 10,5 C 13,7 C 0,0 km/h (0 Bft) 0,00 %
16.10.2014 10:00 13,9 C 81 % 1009,2 hPa 0,3 l/m 0,0 km/h (0 Bft) N 0,00 h 0,000 mm 1,0 UV-I 79 W/m 10,7 C 13,9 C 0,0 km/h (0 Bft) 0,00 %
16.10.2014 11:00 14,8 C 77 % 1008,8 hPa 0,0 l/m 0,3 km/h (0 Bft) O-SO 0,00 h 0,000 mm 2,0 UV-I 179 W/m 10,7 C 14,8 C 1,0 km/h (0 Bft) 0,00 %
16.10.2014 12:00 16,5 C 70 % 1008,0 hPa 0,0 l/m 0,4 km/h (0 Bft) N 0,00 h 0,000 mm 2,3 UV-I 197 W/m 11,0 C 16,5 C 3,0 km/h (1 Bft) 0,00 %
16.10.2014 13:00 17,8 C 66 % 1007,4 hPa 0,0 l/m 0,2 km/h (0 Bft) N 0,00 h 0,000 mm 2,7 UV-I 216 W/m 11,2 C 17,8 C 1,0 km/h (0 Bft) 0,00 %
16.10.2014 14:00 18,5 C 63 % 1007,0 hPa 0,0 l/m 0,0 km/h (0 Bft) N 0,00 h 0,000 mm 1,3 UV-I 168 W/m 11,3 C 18,5 C 0,0 km/h (0 Bft) 0,00 %
16.10.2014 15:00 18,8 C 61 % 1006,4 hPa 0,0 l/m 0,0 km/h (0 Bft) N 0,00 h 0,000 mm 1,7 UV-I 172 W/m 11,2 C 18,8 C 0,0 km/h (0 Bft) 0,00 %
16.10.2014 16:00 18,4 C 62 % 1006,9 hPa 0,0 l/m 0,0 km/h (0 Bft) N 0,00 h 0,000 mm 1,0 UV-I 85 W/m 11,1 C 18,4 C 0,0 km/h (0 Bft) 0,00 %
16.10.2014 17:00 17,0 C 69 % 1007,6 hPa 0,0 l/m 0,0 km/h (0 Bft) N 0,00 h 0,000 mm 0,0 UV-I 24 W/m 11,3 C 17,0 C 0,0 km/h (0 Bft) 0,00 %
16.10.2014 18:00 15,7 C 79 % 1008,0 hPa 0,3 l/m 0,0 km/h (0 Bft) N 0,00 h 0,000 mm 0,0 UV-I 0 W/m 12,1 C 15,7 C 0,0 km/h (0 Bft) 0,00 %
16.10.2014 19:00 14,9 C 81 % 1008,8 hPa 0,0 l/m 0,0 km/h (0 Bft) N 0,00 h 0,000 mm 0,0 UV-I 0 W/m 11,7 C 14,9 C 0,0 km/h (0 Bft) 0,00 %
16.10.2014 20:00 14,9 C 79 % 1009,2 hPa 0,0 l/m 0,0 km/h (0 Bft) N 0,00 h 0,000 mm 0,0 UV-I 0 W/m 11,2 C 14,9 C 0,0 km/h (0 Bft) 0,00 %
16.10.2014 21:00 15,4 C 73 % 1009,8 hPa 0,0 l/m 0,6 km/h (0 Bft) W-NW 0,00 h 0,000 mm 0,0 UV-I 0 W/m 10,6 C 15,4 C 3,0 km/h (1 Bft) 0,00 %
16.10.2014 22:00 14,8 C 77 % 1009,9 hPa 0,0 l/m 0,0 km/h (0 Bft) N 0,00 h 0,000 mm 0,0 UV-I 0 W/m 10,7 C 14,8 C 0,0 km/h (0 Bft) 0,00 %
16.10.2014 23:00 14,4 C 80 % 1009,8 hPa 0,0 l/m 0,1 km/h (0 Bft) N 0,00 h 0,000 mm 0,0 UV-I 0 W/m 10,8 C 14,4 C 1,0 km/h (0 Bft) 0,00 %
17.10.2014 00:00 14,0 C 82 % 1010,2 hPa 0,0 l/m 0,2 km/h (0 Bft) N 0,00 h 0,000 mm 0,0 UV-I 0 W/m 10,9 C 14,0 C 2,0 km/h (1 Bft) 0,00 %
17.10.2014 01:00 13,7 C 82 % 1010,0 hPa 0,0 l/m 0,0 km/h (0 Bft) N 0,00 h 0,000 mm 0,0 UV-I 0 W/m 10,7 C 13,7 C 0,0 km/h (0 Bft) 0,00 %
17.10.2014 02:00 13,4 C 83 % 1009,1 hPa 0,0 l/m 0,0 km/h (0 Bft) N 0,00 h 0,000 mm 0,0 UV-I 0 W/m 10,6 C 13,4 C 0,0 km/h (0 Bft) 0,00 %
17.10.2014 03:00 13,0 C 85 % 1008,8 hPa 0,0 l/m 0,0 km/h (0 Bft) N 0,00 h 0,000 mm 0,0 UV-I 0 W/m 10,4 C 13,0 C 0,0 km/h (0 Bft) 0,00 %
17.10.2014 04:00 13,0 C 85 % 1008,0 hPa 0,0 l/m 0,0 km/h (0 Bft) N 0,00 h 0,000 mm 0,0 UV-I 0 W/m 10,6 C 13,0 C 0,0 km/h (0 Bft) 0,00 %
17.10.2014 05:00 13,0 C 84 % 1007,3 hPa 0,0 l/m 0,0 km/h (0 Bft) N 0,00 h 0,000 mm 0,0 UV-I 0 W/m 10,4 C 13,0 C 0,0 km/h (0 Bft) 0,00 %
17.10.2014 06:00 12,9 C 85 % 1006,5 hPa 0,0 l/m 0,0 km/h (0 Bft) N 0,00 h 0,000 mm 0,0 UV-I 0 W/m 10,4 C 12,9 C 0,0 km/h (0 Bft) 0,00 %
17.10.2014 07:00 13,0 C 85 % 1006,7 hPa 0,6 l/m 0,2 km/h (0 Bft) N 0,00 h 0,000 mm 0,0 UV-I 0 W/m 10,5 C 13,0 C 2,0 km/h (1 Bft) 0,00 %
17.10.2014 08:00 13,0 C 85 % 1006,8 hPa 1,2 l/m 1,2 km/h (1 Bft) O 0,00 h 0,000 mm 0,0 UV-I 16 W/m 10,6 C 13,0 C 4,0 km/h (1 Bft) 0,00 %
17.10.2014 09:00 13,3 C 85 % 1006,3 hPa 1,2 l/m 2,1 km/h (1 Bft) S-SO 0,00 h 0,000 mm 1,0 UV-I 49 W/m 10,8 C 13,0 C 3,0 km/h (1 Bft) 0,00 %
17.10.2014 10:00 13,3 C 85 % 1007,7 hPa 3,3 l/m 0,3 km/h (0 Bft) N 0,00 h 0,000 mm 1,0 UV-I 31 W/m 10,8 C 13,3 C 2,0 km/h (1 Bft) 0,00 %
17.10.2014 11:00 13,1 C 85 % 1009,0 hPa 0,6 l/m 0,0 km/h (0 Bft) N 0,00 h 0,000 mm 1,0 UV-I 60 W/m 10,6 C 13,1 C 0,0 km/h (0 Bft) 0,00 %
17.10.2014 12:00 12,4 C 84 % 1011,7 hPa 1,5 l/m 1,5 km/h (1 Bft) W-NW 0,00 h 0,000 mm 1,5 UV-I 45 W/m 9,7 C 12,4 C 4,0 km/h (1 Bft) 0,00 %
17.10.2014 13:00 13,2 C 83 % 1014,6 hPa 0,3 l/m 1,6 km/h (1 Bft) W-SW 0,00 h 0,000 mm 1,7 UV-I 165 W/m 10,4 C 13,2 C 5,0 km/h (1 Bft) 0,00 %
17.10.2014 14:00 13,1 C 82 % 1015,7 hPa 0,0 l/m 1,5 km/h (1 Bft) N-NW 0,00 h 0,000 mm 1,3 UV-I 139 W/m 10,1 C 13,1 C 4,0 km/h (1 Bft) 0,00 %
17.10.2014 15:00 13,4 C 81 % 1016,2 hPa 0,0 l/m 0,7 km/h (0 Bft) NO 0,00 h 0,000 mm 1,7 UV-I 132 W/m 10,2 C 13,4 C 3,0 km/h (1 Bft) 0,00 %
17.10.2014 16:00 13,6 C 81 % 1016,9 hPa 0,0 l/m 0,6 km/h (0 Bft) SO 0,25 h 0,000 mm 1,0 UV-I 90 W/m 10,4 C 13,6 C 3,0 km/h (1 Bft) 0,00 %
17.10.2014 17:00 13,3 C 79 % 1017,5 hPa 0,0 l/m 1,4 km/h (1 Bft) W-SW 0,25 h 0,000 mm 1,0 UV-I 36 W/m 9,7 C 13,3 C 3,0 km/h (1 Bft) 0,00 %
17.10.2014 18:00 12,6 C 82 % 1018,3 hPa 0,0 l/m 0,0 km/h (0 Bft) N 0,00 h 0,000 mm 0,0 UV-I 0 W/m 9,5 C 12,6 C 0,0 km/h (0 Bft) 0,00 %
17.10.2014 19:00 11,8 C 83 % 1019,2 hPa 0,0 l/m 0,0 km/h (0 Bft) N 0,00 h 0,000 mm 0,0 UV-I 0 W/m 8,9 C 11,8 C 0,0 km/h (0 Bft) 0,00 %
17.10.2014 20:00 11,7 C 83 % 1019,8 hPa 0,0 l/m 0,1 km/h (0 Bft) N 0,00 h 0,000 mm 0,0 UV-I 0 W/m 8,9 C 11,7 C 1,0 km/h (0 Bft) 0,00 %
17.10.2014 21:00 11,8 C 82 % 1020,0 hPa 0,0 l/m 0,0 km/h (0 Bft) N 0,00 h 0,000 mm 0,0 UV-I 0 W/m 8,9 C 11,8 C 0,0 km/h (0 Bft) 0,00 %
17.10.2014 22:00 11,7 C 82 % 1020,3 hPa 0,0 l/m 0,0 km/h (0 Bft) N 0,00 h 0,000 mm 0,0 UV-I 0 W/m 8,7 C 11,7 C 0,0 km/h (0 Bft) 0,00 %
17.10.2014 23:00 11,2 C 83 % 1020,6 hPa 0,0 l/m 0,0 km/h (0 Bft) N 0,00 h 0,000 mm 0,0 UV-I 0 W/m 8,4 C 11,2 C 0,0 km/h (0 Bft) 0,00 %
18.10.2014 00:00 10,3 C 85 % 1021,0 hPa 0,0 l/m 0,0 km/h (0 Bft) N 0,00 h 0,000 mm 0,0 UV-I 0 W/m 7,9 C 10,3 C 0,0 km/h (0 Bft) 0,00 %
18.10.2014 01:00 9,6 C 86 % 1021,3 hPa 0,0 l/m 0,0 km/h (0 Bft) N 0,00 h 0,000 mm 0,0 UV-I 0 W/m 7,3 C 9,6 C 0,0 km/h (0 Bft) 0,00 %
18.10.2014 02:00 8,9 C 86 % 1021,7 hPa 0,0 l/m 0,0 km/h (0 Bft) N 0,00 h 0,000 mm 0,0 UV-I 0 W/m 6,6 C 8,9 C 0,0 km/h (0 Bft) 0,00 %
18.10.2014 03:00 8,6 C 86 % 1022,0 hPa 0,3 l/m 0,0 km/h (0 Bft) N 0,00 h 0,000 mm 0,0 UV-I 0 W/m 6,5 C 8,6 C 0,0 km/h (0 Bft) 0,00 %
18.10.2014 04:00 7,9 C 87 % 1022,3 hPa 0,0 l/m 0,0 km/h (0 Bft) N 0,00 h 0,000 mm 0,0 UV-I 0 W/m 5,9 C 7,9 C 0,0 km/h (0 Bft) 0,00 %
18.10.2014 05:00 6,9 C 88 % 1022,9 hPa 0,0 l/m 0,0 km/h (0 Bft) N 0,00 h 0,000 mm 0,0 UV-I 0 W/m 4,9 C 6,9 C 0,0 km/h (0 Bft) 0,00 %
18.10.2014 06:00 6,4 C 88 % 1023,4 hPa 0,0 l/m 0,0 km/h (0 Bft) N 0,00 h 0,000 mm 0,0 UV-I 0 W/m 4,5 C 6,4 C 0,0 km/h (0 Bft) 0,00 %
18.10.2014 07:00 6,4 C 87 % 1023,7 hPa 0,0 l/m 0,0 km/h (0 Bft) N 0,00 h 0,000 mm 0,0 UV-I 10 W/m 4,4 C 6,4 C 0,0 km/h (0 Bft) 0,00 %
18.10.2014 08:00 7,3 C 88 % 1024,2 hPa 0,0 l/m 0,1 km/h (0 Bft) N 0,00 h 0,000 mm 1,0 UV-I 63 W/m 5,4 C 7,3 C 1,0 km/h (0 Bft) 0,00 %
18.10.2014 09:00 8,9 C 86 % 1024,4 hPa 0,0 l/m 0,0 km/h (0 Bft) N 0,00 h 0,000 mm 1,7 UV-I 136 W/m 6,7 C 8,9 C 0,0 km/h (0 Bft) 0,00 %
18.10.2014 10:00 10,1 C 86 % 1024,8 hPa 0,0 l/m 1,2 km/h (1 Bft) O-SO 0,00 h 0,000 mm 2,0 UV-I 161 W/m 7,8 C 10,1 C 2,0 km/h (1 Bft) 0,00 %
18.10.2014 11:00 11,3 C 82 % 1024,5 hPa 0,0 l/m 0,1 km/h (0 Bft) O-SO 0,00 h 0,000 mm 2,0 UV-I 197 W/m 8,3 C 11,3 C 1,0 km/h (0 Bft) 0,00 %
18.10.2014 12:00 11,7 C 82 % 1024,4 hPa 0,0 l/m 0,8 km/h (0 Bft) NO 0,00 h 0,000 mm 2,0 UV-I 176 W/m 8,7 C 11,7 C 3,0 km/h (1 Bft) 0,00 %
18.10.2014 13:00 12,4 C 81 % 1024,1 hPa 0,0 l/m 2,7 km/h (1 Bft) O 0,00 h 0,000 mm 2,3 UV-I 186 W/m 9,1 C 12,4 C 5,9 km/h (2 Bft) 0,00 %
18.10.2014 14:00 12,9 C 79 % 1023,2 hPa 0,0 l/m 1,5 km/h (1 Bft) O-SO 0,00 h 0,000 mm 2,0 UV-I 185 W/m 9,3 C 12,9 C 3,0 km/h (1 Bft) 0,00 %
18.10.2014 15:00 13,5 C 78 % 1022,3 hPa 0,0 l/m 0,1 km/h (0 Bft) O-SO 0,25 h 0,000 mm 1,0 UV-I 174 W/m 9,7 C 13,5 C 1,0 km/h (0 Bft) 0,00 %
18.10.2014 16:00 14,3 C 75 % 1021,9 hPa 0,0 l/m 0,8 km/h (0 Bft) N 1,00 h 0,000 mm 1,0 UV-I 324 W/m 9,9 C 14,3 C 1,0 km/h (0 Bft) 0,00 %
18.10.2014 17:00 13,8 C 78 % 1022,2 hPa 0,0 l/m 0,0 km/h (0 Bft) N 1,00 h 0,000 mm 0,0 UV-I 230 W/m 10,0 C 13,8 C 0,0 km/h (0 Bft) 0,00 %
18.10.2014 18:00 12,2 C 82 % 1022,8 hPa 0,0 l/m 0,0 km/h (0 Bft) N 0,00 h 0,000 mm 0,0 UV-I 0 W/m 9,2 C 12,2 C 0,0 km/h (0 Bft) 0,00 %
18.10.2014 19:00 10,9 C 85 % 1023,3 hPa 0,0 l/m 0,0 km/h (0 Bft) N 0,00 h 0,000 mm 0,0 UV-I 0 W/m 8,4 C 10,9 C 0,0 km/h (0 Bft) 0,00 %
18.10.2014 20:00 10,2 C 85 % 1023,3 hPa 0,0 l/m 0,0 km/h (0 Bft) N 0,00 h 0,000 mm 0,0 UV-I 0 W/m 7,9 C 10,2 C 0,0 km/h (0 Bft) 0,00 %
18.10.2014 21:00 10,0 C 86 % 1023,5 hPa 0,0 l/m 0,0 km/h (0 Bft) N 0,00 h 0,000 mm 0,0 UV-I 0 W/m 7,8 C 10,0 C 0,0 km/h (0 Bft) 0,00 %
18.10.2014 22:00 9,1 C 86 % 1023,9 hPa 0,0 l/m 0,0 km/h (0 Bft) N 0,00 h 0,000 mm 0,0 UV-I 0 W/m 6,9 C 9,1 C 0,0 km/h (0 Bft) 0,00 %
18.10.2014 23:00 8,0 C 87 % 1023,9 hPa 0,0 l/m 0,0 km/h (0 Bft) N 0,00 h 0,000 mm 0,0 UV-I 0 W/m 6,0 C 8,0 C 0,0 km/h (0 Bft) 0,00 %
19.10.2014 00:00 7,3 C 88 % 1023,8 hPa 0,0 l/m 0,0 km/h (0 Bft) N 0,00 h 0,000 mm 0,0 UV-I 0 W/m 5,5 C 7,3 C 0,0 km/h (0 Bft) 0,00 %
19.10.2014 01:00 7,2 C 88 % 1023,7 hPa 0,3 l/m 0,0 km/h (0 Bft) N 0,00 h 0,000 mm 0,0 UV-I 0 W/m 5,4 C 7,2 C 0,0 km/h (0 Bft) 0,00 %
19.10.2014 02:00 7,2 C 88 % 1023,8 hPa 0,0 l/m 0,0 km/h (0 Bft) N 0,00 h 0,000 mm 0,0 UV-I 0 W/m 5,4 C 7,2 C 0,0 km/h (0 Bft) 0,00 %
19.10.2014 03:00 7,9 C 87 % 1023,4 hPa 0,0 l/m 0,0 km/h (0 Bft) N 0,00 h 0,000 mm 0,0 UV-I 0 W/m 5,8 C 7,9 C 0,0 km/h (0 Bft) 0,00 %
19.10.2014 04:00 9,0 C 87 % 1022,9 hPa 0,0 l/m 0,0 km/h (0 Bft) N 0,00 h 0,000 mm 0,0 UV-I 0 W/m 6,9 C 9,0 C 0,0 km/h (0 Bft) 0,00 %
19.10.2014 05:00 9,4 C 87 % 1022,9 hPa 0,0 l/m 0,0 km/h (0 Bft) N 0,00 h 0,000 mm 0,0 UV-I 0 W/m 7,3 C 9,4 C 0,0 km/h (0 Bft) 0,00 %
19.10.2014 06:00 9,2 C 87 % 1022,7 hPa 0,0 l/m 0,0 km/h (0 Bft) N 0,00 h 0,000 mm 0,0 UV-I 0 W/m 7,1 C 9,2 C 0,0 km/h (0 Bft) 0,00 %
19.10.2014 07:00 9,0 C 87 % 1022,8 hPa 0,0 l/m 0,0 km/h (0 Bft) N 0,00 h 0,000 mm 0,0 UV-I 1 W/m 6,9 C 9,0 C 0,0 km/h (0 Bft) 0,00 %
19.10.2014 08:00 9,3 C 87 % 1023,3 hPa 0,0 l/m 0,0 km/h (0 Bft) N 0,00 h 0,000 mm 1,0 UV-I 35 W/m 7,1 C 9,3 C 0,0 km/h (0 Bft) 0,00 %
19.10.2014 09:00 9,8 C 86 % 1023,4 hPa 0,0 l/m 0,0 km/h (0 Bft) N 0,00 h 0,000 mm 1,3 UV-I 83 W/m 7,6 C 9,8 C 0,0 km/h (0 Bft) 0,00 %
19.10.2014 10:00 10,6 C 85 % 1023,1 hPa 0,0 l/m 0,0 km/h (0 Bft) N 0,00 h 0,000 mm 2,0 UV-I 150 W/m 8,2 C 10,6 C 0,0 km/h (0 Bft) 0,00 %
19.10.2014 11:00 11,1 C 84 % 1022,8 hPa 0,0 l/m 0,0 km/h (0 Bft) N 0,00 h 0,000 mm 2,0 UV-I 161 W/m 8,4 C 11,1 C 0,0 km/h (0 Bft) 0,00 %
19.10.2014 12:00 12,6 C 77 % 1022,1 hPa 0,0 l/m 0,0 km/h (0 Bft) N 0,00 h 0,000 mm 2,3 UV-I 253 W/m 8,7 C 12,6 C 0,0 km/h (0 Bft) 0,00 %
19.10.2014 13:00 13,6 C 76 % 1020,7 hPa 0,0 l/m 0,9 km/h (0 Bft) O 0,50 h 0,000 mm 2,0 UV-I 330 W/m 9,4 C 13,6 C 3,0 km/h (1 Bft) 0,00 %
19.10.2014 14:00 13,9 C 77 % 1019,9 hPa 0,0 l/m 0,5 km/h (0 Bft) N 1,00 h 0,000 mm 2,0 UV-I 396 W/m 9,9 C 13,9 C 4,0 km/h (1 Bft) 0,00 %
19.10.2014 15:00 13,9 C 78 % 1019,6 hPa 0,0 l/m 0,0 km/h (0 Bft) N 1,00 h 0,000 mm 1,0 UV-I 363 W/m 10,1 C 13,9 C 0,0 km/h (0 Bft) 0,00 %
19.10.2014 16:00 14,8 C 75 % 1018,9 hPa 0,0 l/m 0,0 km/h (0 Bft) N 1,00 h 0,000 mm 1,0 UV-I 312 W/m 10,4 C 14,8 C 0,0 km/h (0 Bft) 0,00 %
19.10.2014 17:00 15,3 C 72 % 1018,9 hPa 0,0 l/m 0,0 km/h (0 Bft) N 1,00 h 0,000 mm 0,0 UV-I 203 W/m 10,3 C 15,3 C 0,0 km/h (0 Bft) 0,00 %
19.10.2014 18:00 12,5 C 81 % 1019,7 hPa 0,0 l/m 0,0 km/h (0 Bft) N 0,00 h 0,000 mm 0,0 UV-I 0 W/m 9,3 C 12,5 C 0,0 km/h (0 Bft) 0,00 %
19.10.2014 19:00 11,1 C 84 % 1019,9 hPa 0,0 l/m 0,0 km/h (0 Bft) N 0,00 h 0,000 mm 0,0 UV-I 0 W/m 8,5 C 11,1 C 0,0 km/h (0 Bft) 0,00 %
19.10.2014 20:00 10,6 C 85 % 1019,8 hPa 0,0 l/m 0,1 km/h (0 Bft) N 0,00 h 0,000 mm 0,0 UV-I 0 W/m 8,2 C 10,6 C 1,0 km/h (0 Bft) 0,00 %
19.10.2014 21:00 9,8 C 86 % 1020,3 hPa 0,0 l/m 0,0 km/h (0 Bft) N 0,00 h 0,000 mm 0,0 UV-I 0 W/m 7,5 C 9,8 C 0,0 km/h (0 Bft) 0,00 %
19.10.2014 22:00 9,4 C 87 % 1020,5 hPa 0,0 l/m 0,0 km/h (0 Bft) N 0,00 h 0,000 mm 0,0 UV-I 0 W/m 7,3 C 9,4 C 0,0 km/h (0 Bft) 0,00 %
19.10.2014 23:00 9,0 C 86 % 1020,2 hPa 0,0 l/m 0,0 km/h (0 Bft) N 0,00 h 0,000 mm 0,0 UV-I 0 W/m 6,8 C 9,0 C 0,0 km/h (0 Bft) 0,00 %
Min-Datum _ 18.10.14 14.10.14 14.10.14 - 13.10.14 - - - - - 18.10.14 18.10.14 13.10.14 13.10.14
_ Min-Zeit 06:45 14:45 00:45 - 00:00 - - - - - 06:45 06:45 00:00 00:00
Minimum _ 6,2 C 55 % 1000,0 hPa - 0,0 km/h (0 Bft) - - - - - 4,4 C 6,2 C 0,0 km/h (0 Bft) 0,00 %
Max-Datum _ 16.10.14 18.10.14 18.10.14 17.10.14 14.10.14 - 13.10.14 13.10.14 13.10.14 19.10.14 13.10.14 16.10.14 14.10.14 13.10.14
_ Max-Zeit 15:30 04:45 10:30 10:45 00:45 - 12:30 00:00 12:15 14:00 16:30 15:30 00:45 00:00
Maximum _ 19,4 C 88 % 1025,0 hPa 3,3 l/m 15,5 km/h
O-NO (3 Bft)
- 0,25 h 0,000 mm 3,0 UV-I 421 W/m 13,0 C 19,4 C 19,8 km/h
O-NO (3 Bft)
0,00 %
Durchschnitt _ 12,7 C 80 % 1012,5 hPa #15,0 l/m 0,4 km/h (0 Bft) O-SO #11:30 h #0,000 mm 1,6 UV-I 142 W/m 9,3 C 12,7 C 1,0 km/h (0 Bft) 0,00 %